Oark, AR (72852)

4:49 PM CDT on August 29, 2016 (GMT -0500)
RAWS | | Change Station

Elev 2100 ft 35.61 °N, 93.54 °W | Updated 41 minutes ago

Clear
Clear
76.0 °F
Feels Like 78 °F
N
5.0
Wind Variable Wind from NE
Gusts 22.0 mph

Today
High -- | Low -- °F
--% Chance of Precip.
Yesterday
High -- | Low -- °F
Precip. -- in
Pressure 30.07 in
Visibility 10.0 miles
Clouds Clear
Heat Index 78 °F
Dew Point 64.0 °F
Humidity 67%
Rainfall in
Snow Depth Not available.
6:44 AM 7:45 PM
Waning Crescent, 7% visible
METAR KFYV 292053Z 10008KT 10SM CLR 32/19 A3011 RMK AO2 WSHFT 2022 LTG DSNT ALQDS SLP182 T03220189 56015
Pressure 30.07 in
Visibility 10.0 miles
Clouds Clear
Heat Index 78 °F
Dew Point 64.0 °F
Humidity 67%
Rainfall in
Snow Depth Not available.
6:44 AM 7:45 PM
Waning Crescent, 7% visible
METAR KFYV 292053Z 10008KT 10SM CLR 32/19 A3011 RMK AO2 WSHFT 2022 LTG DSNT ALQDS SLP182 T03220189 56015

10-Day Weather Forecast

Almanac

Astronomy

Aug. 29, 2016 Rise Set
Actual Time
Civil Twilight
Nautical Twilight
Astronomical Twilight
Moon
Length of Visible Light
Length of Day
Tomorrow will be .
, % of the Moon is Illuminated

Today's Extremes

State Highs State Lows

Community

WunderPhotos

Upload Photos

1,935,690 photos uploaded!

WunderBlog® & News

Nearby

Air Quality

  Air Quality AQ Index Pollutant
Not available.

Snow Depth

Station Depth Elevation

Earthquake Activity

City Distance Mag. Time & Date
Minimum magnitude displayed is 2.5.

Coastal Water Temperatures

Place Temperature

Stations

Nearby Weather Stations

Station Location Temp. Windchill Dew Point Humidity Wind Precip. Elev Updated Type
                   

Watches & Warnings

There are currently no watches in effect.